Time;durP1;ratioP1;P1;durP2;ratioP2;P2;SDS_P1;SDS_P2;PMS_P1;PMS_P2;Temp;Humidity;BMP_temperature;BMP_pressure;BME280_temperature;BME280_humidity;BME280_pressure;Samples;Min_cycle;Max_cycle;Signal;HPM_P1;HPM_P2
2022/03/05 00:01:13;;;;;;;32.67;12.47;;;0.60;99.90;;;;;;5093924;28;20331;-78
2022/03/05 00:03:40;;;;;;;24.97;10.77;;;0.60;99.90;;;;;;5079593;28;20205;-78
2022/03/05 00:06:07;;;;;;;29.83;12.43;;;0.70;99.90;;;;;;5097075;28;20621;-78
2022/03/05 00:08:33;;;;;;;29.90;11.80;;;0.60;99.90;;;;;;5091849;28;20277;-77
2022/03/05 00:11:00;;;;;;;32.60;12.13;;;0.70;99.90;;;;;;5090503;28;20299;-77
2022/03/05 00:13:27;;;;;;;29.27;12.30;;;0.70;99.90;;;;;;5094303;28;20921;-78
2022/03/05 00:15:54;;;;;;;30.43;12.73;;;0.70;99.90;;;;;;5083811;28;20285;-78
2022/03/05 00:18:21;;;;;;;31.63;11.90;;;0.60;99.90;;;;;;5089113;28;20295;-78
2022/03/05 00:20:51;;;;;;;30.23;12.20;;;0.60;99.90;;;;;;5088049;28;20617;-78
2022/03/05 00:23:18;;;;;;;35.13;14.30;;;0.60;99.90;;;;;;5092366;28;20212;-78
2022/03/05 00:25:45;;;;;;;31.73;12.60;;;0.60;99.90;;;;;;5092299;28;20204;-77
2022/03/05 00:28:12;;;;;;;32.30;12.23;;;0.60;99.90;;;;;;5089379;28;20319;-78
2022/03/05 00:30:39;;;;;;;33.23;13.10;;;0.60;99.90;;;;;;5096116;28;20247;-78
2022/03/05 00:33:05;;;;;;;31.40;12.17;;;0.60;99.90;;;;;;5095979;28;20287;-78
2022/03/05 00:35:33;;;;;;;28.13;11.30;;;0.50;99.90;;;;;;5090627;28;20212;-77
2022/03/05 00:38:00;;;;;;;28.30;12.40;;;0.50;99.90;;;;;;5089308;28;20601;-78
2022/03/05 00:40:27;;;;;;;34.60;13.07;;;0.50;99.90;;;;;;5090851;28;20304;-78
2022/03/05 00:42:53;;;;;;;31.07;12.53;;;0.50;99.90;;;;;;5091177;28;20281;-79
2022/03/05 00:45:20;;;;;;;28.83;12.40;;;0.40;99.90;;;;;;5089404;28;20690;-78
2022/03/05 00:47:47;;;;;;;30.23;12.00;;;0.40;99.90;;;;;;5072671;28;20255;-78
2022/03/05 00:50:14;;;;;;;29.13;12.37;;;0.40;99.90;;;;;;5087253;28;20228;-79
2022/03/05 00:52:42;;;;;;;35.17;13.40;;;0.40;99.90;;;;;;5072449;28;20196;-79
2022/03/05 00:55:09;;;;;;;31.97;12.27;;;0.30;99.90;;;;;;5092459;28;20277;-79
2022/03/05 00:57:37;;;;;;;29.90;12.30;;;0.30;99.90;;;;;;5088841;28;20234;-78
2022/03/05 01:00:05;;;;;;;28.00;13.30;;;0.30;99.90;;;;;;5090998;28;20632;-79
2022/03/05 01:02:32;;;;;;;31.33;12.67;;;0.30;99.90;;;;;;5095188;28;20191;-78
2022/03/05 01:04:59;;;;;;;28.70;12.27;;;0.20;99.90;;;;;;5093878;28;20211;-78
2022/03/05 01:07:26;;;;;;;31.90;12.60;;;0.20;99.90;;;;;;5091130;28;20299;-78
2022/03/05 01:09:53;;;;;;;33.33;12.63;;;0.10;99.90;;;;;;5098141;28;20220;-80
2022/03/05 01:12:22;;;;;;;31.67;13.23;;;0.10;99.90;;;;;;5091834;28;20299;-79
2022/03/05 01:14:50;;;;;;;27.83;12.10;;;0.00;99.90;;;;;;5095841;28;20204;-79
2022/03/05 01:17:18;;;;;;;27.13;12.27;;;0.00;99.90;;;;;;5093678;28;20613;-78
2022/03/05 01:19:46;;;;;;;35.60;12.63;;;0.00;99.90;;;;;;5077417;28;20226;-77
2022/03/05 01:22:13;;;;;;;32.87;12.53;;;-0.10;99.90;;;;;;5075356;28;20196;-79
2022/03/05 01:24:40;;;;;;;32.13;12.83;;;-0.10;99.90;;;;;;5084964;28;20299;-79
2022/03/05 01:27:10;;;;;;;37.47;14.17;;;-0.20;99.90;;;;;;5094080;28;20254;-79
2022/03/05 01:29:37;;;;;;;37.13;13.60;;;-0.20;99.90;;;;;;5090874;28;20236;-78
2022/03/05 01:32:04;;;;;;;35.73;13.57;;;-0.30;99.90;;;;;;5097866;28;20240;-78
2022/03/05 01:34:31;;;;;;;33.57;12.70;;;-0.30;99.90;;;;;;5088641;28;20205;-78
2022/03/05 01:36:58;;;;;;;34.87;12.80;;;-0.40;99.90;;;;;;5091531;28;20232;-80
2022/03/05 01:39:25;;;;;;;39.37;13.13;;;-0.40;99.90;;;;;;5075003;28;20581;-78
2022/03/05 01:41:55;;;;;;;32.67;12.27;;;-0.40;99.90;;;;;;5089603;28;20200;-79
2022/03/05 01:44:25;;;;;;;33.27;12.63;;;-0.40;99.90;;;;;;5089877;28;20250;-79
2022/03/05 01:46:52;;;;;;;31.93;13.17;;;-0.40;99.90;;;;;;5089469;28;20282;-78
2022/03/05 01:49:19;;;;;;;34.73;13.80;;;-0.50;99.90;;;;;;5095187;28;20231;-78
2022/03/05 01:51:47;;;;;;;35.97;13.33;;;-0.50;99.90;;;;;;5073655;28;20205;-77
2022/03/05 01:54:14;;;;;;;31.20;11.90;;;-0.60;99.90;;;;;;5088173;28;20215;-79
2022/03/05 01:56:42;;;;;;;37.43;13.77;;;-0.60;99.90;;;;;;5092271;28;20246;-80
2022/03/05 01:59:09;;;;;;;30.00;11.77;;;-0.60;99.90;;;;;;5079938;28;20294;-80
2022/03/05 02:01:36;;;;;;;33.37;13.43;;;-0.70;99.90;;;;;;5078211;28;20762;-77
2022/03/05 02:04:04;;;;;;;33.40;13.70;;;-0.70;99.90;;;;;;5096972;28;20203;-77
2022/03/05 02:06:31;;;;;;;37.77;15.13;;;-0.80;99.90;;;;;;5082800;28;20633;-79
2022/03/05 02:08:58;;;;;;;35.40;12.87;;;-0.80;99.90;;;;;;5094392;28;20985;-78
2022/03/05 02:11:26;;;;;;;32.67;12.83;;;-0.80;99.90;;;;;;5087500;28;20208;-78
2022/03/05 02:13:54;;;;;;;35.00;13.23;;;-0.90;99.90;;;;;;5091462;28;20218;-80
2022/03/05 02:16:22;;;;;;;32.37;12.93;;;-0.90;99.90;;;;;;5093351;28;20347;-79
2022/03/05 02:18:51;;;;;;;36.33;13.60;;;-0.90;99.90;;;;;;5076028;28;20222;-79
2022/03/05 02:21:22;;;;;;;34.13;13.07;;;-1.00;99.90;;;;;;5088585;28;20204;-78
2022/03/05 02:23:49;;;;;;;38.03;13.60;;;-1.00;99.90;;;;;;5084281;28;20211;-78
2022/03/05 02:26:17;;;;;;;34.90;14.03;;;-1.00;99.90;;;;;;5094784;28;20636;-79
2022/03/05 02:28:44;;;;;;;36.07;13.17;;;-1.10;99.90;;;;;;5090481;28;20769;-79
2022/03/05 02:31:12;;;;;;;36.60;13.47;;;-1.10;99.90;;;;;;5094380;28;20251;-78
2022/03/05 02:33:40;;;;;;;36.03;13.90;;;-1.20;99.90;;;;;;5074922;28;20196;-78
2022/03/05 02:36:07;;;;;;;30.67;13.13;;;-1.20;99.90;;;;;;5071808;28;20219;-79
2022/03/05 02:38:34;;;;;;;38.93;15.03;;;-1.20;99.90;;;;;;5085082;28;20277;-77
2022/03/05 02:41:01;;;;;;;39.97;13.73;;;-1.30;99.90;;;;;;5080648;28;20292;-78
2022/03/05 02:43:28;;;;;;;36.87;14.27;;;-1.30;99.90;;;;;;5081429;28;20240;-78
2022/03/05 02:45:55;;;;;;;38.80;13.67;;;-1.20;99.90;;;;;;5090188;28;20224;-78
2022/03/05 02:48:22;;;;;;;37.43;14.23;;;-1.30;99.90;;;;;;5094166;28;20200;-77
2022/03/05 02:50:50;;;;;;;43.00;14.23;;;-1.30;99.90;;;;;;5092251;28;20232;-78
2022/03/05 02:53:18;;;;;;;37.30;13.70;;;-1.30;99.90;;;;;;5088874;28;20281;-79
2022/03/05 02:55:46;;;;;;;32.73;13.40;;;-1.30;99.90;;;;;;5072120;28;20211;-78
2022/03/05 02:58:13;;;;;;;43.40;15.40;;;-1.30;99.90;;;;;;5081013;28;20208;-78
2022/03/05 03:00:40;;;;;;;36.77;13.47;;;-1.30;99.90;;;;;;5091750;28;20248;-77
2022/03/05 03:03:08;;;;;;;34.87;14.33;;;-1.40;99.90;;;;;;5076117;28;20200;-78
2022/03/05 03:05:35;;;;;;;33.93;13.30;;;-1.40;99.90;;;;;;5094244;28;20208;-79
2022/03/05 03:08:01;;;;;;;37.17;14.37;;;-1.40;99.90;;;;;;5092966;28;20263;-78
2022/03/05 03:10:28;;;;;;;38.23;14.80;;;-1.40;99.90;;;;;;5092654;28;20227;-78
2022/03/05 03:12:57;;;;;;;39.60;15.57;;;-1.50;99.90;;;;;;5093429;28;20293;-78
2022/03/05 03:15:25;;;;;;;41.33;15.47;;;-1.50;99.90;;;;;;5093049;28;20254;-78
2022/03/05 03:17:52;;;;;;;39.60;14.40;;;-1.50;99.90;;;;;;5093076;28;20290;-78
2022/03/05 03:20:22;;;;;;;41.77;14.73;;;-1.60;99.90;;;;;;5094732;28;20238;-79
2022/03/05 03:22:49;;;;;;;42.53;14.03;;;-1.50;99.90;;;;;;5071459;28;20666;-80
2022/03/05 03:25:16;;;;;;;34.70;12.63;;;-1.60;99.90;;;;;;5085492;28;20222;-79
2022/03/05 03:27:43;;;;;;;34.37;13.37;;;-1.60;99.90;;;;;;5086729;28;20290;-79
2022/03/05 03:30:12;;;;;;;39.83;14.67;;;-1.70;99.90;;;;;;5092382;28;20234;-78
2022/03/05 03:32:39;;;;;;;38.60;14.47;;;-1.70;99.90;;;;;;5080905;28;20266;-78
2022/03/05 03:35:07;;;;;;;38.23;12.83;;;-1.70;99.90;;;;;;5087672;28;20207;-79
2022/03/05 03:37:37;;;;;;;42.10;14.70;;;-1.70;99.90;;;;;;5088263;28;20256;-78
2022/03/05 03:40:06;;;;;;;38.30;14.83;;;-1.80;99.90;;;;;;5091951;28;20243;-77
2022/03/05 03:42:34;;;;;;;39.87;14.23;;;-1.80;99.90;;;;;;5093673;28;20651;-78
2022/03/05 03:45:02;;;;;;;33.83;13.10;;;-1.80;99.90;;;;;;5075147;28;20287;-78
2022/03/05 03:47:28;;;;;;;39.67;14.57;;;-1.90;99.90;;;;;;5092563;28;20207;-79
2022/03/05 03:49:56;;;;;;;37.37;13.13;;;-1.90;99.90;;;;;;5088133;28;20279;-80
2022/03/05 03:52:23;;;;;;;41.63;15.47;;;-1.90;99.90;;;;;;5087646;28;20594;-78
2022/03/05 03:54:50;;;;;;;32.83;13.77;;;-2.00;99.90;;;;;;5091547;28;20296;-79
2022/03/05 03:57:17;;;;;;;38.13;15.13;;;-2.00;99.90;;;;;;5093253;28;20363;-78
2022/03/05 03:59:46;;;;;;;33.33;14.50;;;-2.00;99.90;;;;;;5093723;28;20301;-79
2022/03/05 04:02:14;;;;;;;35.23;14.07;;;-2.00;99.90;;;;;;5088306;28;20218;-79
2022/03/05 04:04:41;;;;;;;40.27;13.43;;;-2.10;99.90;;;;;;5088798;28;20224;-78
2022/03/05 04:09:55;;;;;;;36.00;12.73;;;-2.10;99.90;;;;;;5088651;28;20707;-79
2022/03/05 04:12:22;;;;;;;37.13;14.43;;;-2.10;99.90;;;;;;5079247;28;20259;-79
2022/03/05 04:14:50;;;;;;;40.10;14.27;;;-2.10;99.90;;;;;;5085777;28;20226;-79
2022/03/05 04:17:17;;;;;;;37.83;13.43;;;-2.20;99.90;;;;;;5081146;28;20225;-78
2022/03/05 04:19:44;;;;;;;31.07;13.43;;;-2.20;99.90;;;;;;5087794;28;20301;-78
2022/03/05 04:22:11;;;;;;;40.10;14.07;;;-2.30;99.90;;;;;;5083949;28;20294;-79
2022/03/05 04:24:38;;;;;;;38.43;15.60;;;-2.30;99.90;;;;;;5069746;28;20217;-78
2022/03/05 04:27:06;;;;;;;38.00;12.97;;;-2.30;99.90;;;;;;5084798;28;20203;-78
2022/03/05 04:29:33;;;;;;;35.80;13.70;;;-2.30;99.90;;;;;;5070392;28;20263;-79
2022/03/05 04:32:00;;;;;;;47.03;14.40;;;-2.30;99.90;;;;;;5087680;28;20266;-78
2022/03/05 04:34:28;;;;;;;31.53;13.10;;;-2.40;99.90;;;;;;5091738;28;21068;-78
2022/03/05 04:36:55;;;;;;;35.23;13.57;;;-2.40;99.90;;;;;;5090474;28;20224;-77
2022/03/05 04:39:22;;;;;;;35.80;13.17;;;-2.40;99.90;;;;;;5098510;28;20318;-79
2022/03/05 04:41:49;;;;;;;43.33;13.53;;;-2.40;99.90;;;;;;5076199;28;20622;-78
2022/03/05 04:44:16;;;;;;;35.90;13.37;;;-2.40;99.90;;;;;;5090057;28;20307;-77
2022/03/05 04:46:44;;;;;;;34.03;12.80;;;-2.40;99.90;;;;;;5098251;28;20241;-79
2022/03/05 04:49:14;;;;;;;42.70;14.80;;;-2.50;99.90;;;;;;5091063;28;20245;-78
2022/03/05 04:51:41;;;;;;;37.03;12.90;;;-2.50;99.90;;;;;;5078347;28;20214;-78
2022/03/05 04:54:08;;;;;;;34.87;13.60;;;-2.50;99.90;;;;;;5088272;28;20617;-79
2022/03/05 04:56:34;;;;;;;34.70;13.77;;;-2.50;99.90;;;;;;5089365;28;20299;-79
2022/03/05 04:59:01;;;;;;;37.93;13.23;;;-2.50;99.90;;;;;;5087988;28;20210;-79
2022/03/05 05:01:28;;;;;;;36.13;13.50;;;-2.60;99.90;;;;;;5094609;28;20226;-77
2022/03/05 05:03:55;;;;;;;40.30;15.40;;;-2.60;99.90;;;;;;5096712;28;20752;-77
2022/03/05 05:06:22;;;;;;;41.20;13.83;;;-2.60;99.90;;;;;;5092738;28;20216;-76
2022/03/05 05:08:48;;;;;;;40.43;14.37;;;-2.60;99.90;;;;;;5087654;28;20237;-78
2022/03/05 05:11:16;;;;;;;44.13;15.33;;;-2.70;99.90;;;;;;5094732;28;20245;-79
2022/03/05 05:13:43;;;;;;;32.83;13.97;;;-2.70;99.90;;;;;;5089642;28;20210;-79
2022/03/05 05:16:10;;;;;;;35.10;13.93;;;-2.70;99.90;;;;;;5099869;28;20692;-76
2022/03/05 05:18:37;;;;;;;36.87;14.93;;;-2.70;99.90;;;;;;5083813;28;20203;-79
2022/03/05 05:21:04;;;;;;;38.50;13.27;;;-2.70;99.90;;;;;;5097686;28;20285;-78
2022/03/05 05:23:31;;;;;;;34.37;13.13;;;-2.80;99.90;;;;;;5088727;28;20291;-77
2022/03/05 05:25:57;;;;;;;37.63;13.70;;;-2.80;99.90;;;;;;5097772;28;20273;-77
2022/03/05 05:28:24;;;;;;;36.40;12.73;;;-2.80;99.90;;;;;;5097304;28;20212;-78
2022/03/05 05:30:51;;;;;;;36.13;15.20;;;-2.80;99.90;;;;;;5091687;28;20327;-79
2022/03/05 05:33:19;;;;;;;35.57;13.77;;;-2.80;99.90;;;;;;5068494;28;20215;-78
2022/03/05 05:35:46;;;;;;;31.40;13.77;;;-2.90;99.90;;;;;;5055722;28;20301;-78
2022/03/05 05:38:13;;;;;;;34.53;12.43;;;-2.90;99.90;;;;;;5066538;28;20299;-77
2022/03/05 05:40:40;;;;;;;39.47;14.47;;;-2.90;99.90;;;;;;5083298;28;20230;-78
2022/03/05 05:43:07;;;;;;;33.33;12.37;;;-3.00;99.90;;;;;;5061615;28;20272;-79
2022/03/05 05:45:34;;;;;;;36.67;13.63;;;-2.90;99.90;;;;;;5069398;28;20218;-79
2022/03/05 05:48:02;;;;;;;34.47;15.30;;;-3.00;99.90;;;;;;5070262;28;20234;-77
2022/03/05 05:50:29;;;;;;;41.70;15.13;;;-3.00;99.90;;;;;;5052590;28;20624;-79
2022/03/05 05:52:56;;;;;;;41.00;14.67;;;-3.00;99.90;;;;;;5071274;28;20210;-79
2022/03/05 05:55:23;;;;;;;40.10;14.17;;;-3.00;99.90;;;;;;5059844;28;20218;-78
2022/03/05 05:57:50;;;;;;;41.00;14.60;;;-3.00;99.90;;;;;;5074159;28;20211;-78
2022/03/05 06:00:17;;;;;;;42.27;14.37;;;-3.00;99.90;;;;;;5049723;28;20590;-78
2022/03/05 06:02:44;;;;;;;35.13;13.73;;;-3.00;99.90;;;;;;5057982;28;20667;-81
2022/03/05 06:05:10;;;;;;;42.33;15.40;;;-2.90;99.90;;;;;;5046526;28;20565;-78
2022/03/05 06:07:37;;;;;;;36.37;15.17;;;-3.00;99.90;;;;;;5071810;28;20537;-78
2022/03/05 06:10:05;;;;;;;40.43;14.97;;;-3.00;99.90;;;;;;5072944;28;20272;-76
2022/03/05 06:12:32;;;;;;;41.80;15.33;;;-3.00;99.90;;;;;;5070804;28;20205;-77
2022/03/05 06:14:59;;;;;;;35.07;14.17;;;-3.00;99.90;;;;;;5085390;28;20205;-76
2022/03/05 06:17:25;;;;;;;42.47;15.70;;;-3.00;99.90;;;;;;5077067;28;20234;-79
2022/03/05 06:19:52;;;;;;;45.23;14.63;;;-3.00;99.90;;;;;;5074599;28;20215;-77
2022/03/05 06:22:20;;;;;;;44.83;14.77;;;-3.00;99.90;;;;;;5050579;28;20304;-76
2022/03/05 06:24:46;;;;;;;41.17;15.63;;;-3.00;99.90;;;;;;5072973;28;20205;-77
2022/03/05 06:27:13;;;;;;;40.57;15.03;;;-3.00;99.90;;;;;;5064309;28;20791;-77
2022/03/05 06:29:40;;;;;;;49.13;16.37;;;-3.00;99.90;;;;;;5078109;28;20199;-77
2022/03/05 06:32:09;;;;;;;43.47;16.27;;;-2.90;99.90;;;;;;5081117;28;20246;-77
2022/03/05 06:34:36;;;;;;;44.53;14.30;;;-2.90;99.90;;;;;;5091576;28;20195;-78
2022/03/05 06:37:03;;;;;;;50.03;17.13;;;-2.90;99.90;;;;;;5090666;28;20206;-78
2022/03/05 06:39:29;;;;;;;36.83;15.47;;;-2.90;99.90;;;;;;5094047;28;20203;-77
2022/03/05 06:41:57;;;;;;;51.10;16.17;;;-2.80;99.90;;;;;;5091515;28;20319;-79
2022/03/05 06:44:27;;;;;;;45.20;15.90;;;-2.80;99.90;;;;;;5096324;28;20233;-77
2022/03/05 06:46:54;;;;;;;55.65;20.10;;;-2.70;99.90;;;;;;5087370;28;20447;-72
2022/03/05 06:49:21;;;;;;;49.87;16.40;;;-2.70;99.90;;;;;;5095859;28;20249;-76
2022/03/05 06:51:48;;;;;;;48.10;16.43;;;-2.60;99.90;;;;;;5093659;28;20231;-76
2022/03/05 06:54:14;;;;;;;48.00;16.90;;;-2.60;99.90;;;;;;5083554;28;20662;-76
2022/03/05 06:56:41;;;;;;;47.40;16.33;;;-2.50;99.90;;;;;;5088055;28;20197;-76
2022/03/05 06:59:08;;;;;;;59.73;18.70;;;-2.50;99.90;;;;;;5068627;28;20699;-77
2022/03/05 07:01:40;;;;;;;83.73;23.00;;;-2.30;99.90;;;;;;5089476;28;20220;-77
2022/03/05 07:04:07;;;;;;;83.57;22.30;;;-1.80;99.90;;;;;;5094253;28;20290;-77
2022/03/05 07:06:34;;;;;;;77.20;23.93;;;-0.90;99.90;;;;;;5093171;28;20639;-77
2022/03/05 07:09:01;;;;;;;81.23;24.57;;;-0.10;99.90;;;;;;5090510;28;20208;-77
2022/03/05 07:11:28;;;;;;;61.67;20.13;;;0.60;99.90;;;;;;5083233;28;20231;-77
2022/03/05 07:13:55;;;;;;;47.40;16.70;;;1.30;99.90;;;;;;5089523;28;20295;-76
2022/03/05 07:16:21;;;;;;;35.87;13.77;;;2.00;99.90;;;;;;5094145;28;20634;-75
2022/03/05 07:18:48;;;;;;;30.37;13.63;;;2.50;99.90;;;;;;5090571;28;20301;-76
2022/03/05 07:21:15;;;;;;;26.03;11.63;;;3.00;99.90;;;;;;5088226;28;20207;-76
2022/03/05 07:23:41;;;;;;;25.50;11.30;;;3.40;99.90;;;;;;5079701;28;20200;-76
2022/03/05 07:26:08;;;;;;;29.53;12.93;;;3.90;99.90;;;;;;5094332;28;20263;-79
2022/03/05 07:28:35;;;;;;;26.73;11.57;;;4.30;99.90;;;;;;5086860;28;20329;-77
2022/03/05 07:31:02;;;;;;;26.57;12.30;;;4.70;99.90;;;;;;5092077;28;21078;-77
2022/03/05 07:33:29;;;;;;;25.43;10.83;;;4.90;99.90;;;;;;5091242;28;20243;-79
2022/03/05 07:35:56;;;;;;;21.87;10.50;;;5.20;99.90;;;;;;5089434;28;20245;-78
2022/03/05 07:38:23;;;;;;;25.87;11.40;;;5.20;99.90;;;;;;5086819;28;20238;-77
2022/03/05 07:40:50;;;;;;;27.43;11.20;;;5.40;99.90;;;;;;5086920;28;20278;-78
2022/03/05 07:43:17;;;;;;;25.47;11.63;;;5.40;99.90;;;;;;5088097;28;20218;-78
2022/03/05 07:45:44;;;;;;;24.13;11.30;;;5.50;99.90;;;;;;5089385;28;20212;-75
2022/03/05 07:48:10;;;;;;;30.30;14.15;;;5.50;99.90;;;;;;5089843;28;20452;-73
2022/03/05 07:50:38;;;;;;;29.33;12.33;;;5.40;99.90;;;;;;5089409;28;20238;-79
2022/03/05 07:53:05;;;;;;;26.13;12.50;;;4.80;99.90;;;;;;5089796;28;20206;-79
2022/03/05 07:55:32;;;;;;;29.63;12.10;;;4.10;99.90;;;;;;5073775;28;20276;-78
2022/03/05 07:57:58;;;;;;;27.70;12.10;;;3.40;99.90;;;;;;5086128;28;20223;-78
2022/03/05 08:00:25;;;;;;;27.37;11.63;;;2.90;99.90;;;;;;5095478;28;20536;-79
2022/03/05 08:02:52;;;;;;;28.77;12.77;;;2.50;99.90;;;;;;5075172;28;20557;-77
2022/03/05 08:05:19;;;;;;;30.87;13.17;;;2.20;99.90;;;;;;5086631;28;20200;-79
2022/03/05 08:07:47;;;;;;;29.43;12.67;;;2.10;99.90;;;;;;5069539;28;20211;-78
2022/03/05 08:10:15;;;;;;;31.33;13.50;;;1.80;99.90;;;;;;5087735;28;20195;-77
2022/03/05 08:12:42;;;;;;;29.93;13.57;;;1.70;99.90;;;;;;5092385;28;20310;-78
2022/03/05 08:15:09;;;;;;;29.27;12.73;;;1.50;99.90;;;;;;5088220;28;20222;-79
2022/03/05 08:17:36;;;;;;;34.37;13.80;;;1.30;99.90;;;;;;5091860;28;20246;-77
2022/03/05 08:20:03;;;;;;;31.53;12.27;;;1.30;99.90;;;;;;5093261;28;20669;-78
2022/03/05 08:22:31;;;;;;;32.43;13.93;;;1.30;99.90;;;;;;5089693;28;20724;-78
2022/03/05 08:24:57;;;;;;;43.20;15.30;;;1.20;99.90;;;;;;5093873;28;20918;-79
2022/03/05 08:27:24;;;;;;;34.60;13.83;;;1.20;99.90;;;;;;5082551;28;20722;-78
2022/03/05 08:29:51;;;;;;;36.63;13.83;;;1.20;99.90;;;;;;5087275;28;20198;-78
2022/03/05 08:32:18;;;;;;;34.73;13.70;;;1.20;99.90;;;;;;5095450;28;20319;-78
2022/03/05 08:34:45;;;;;;;34.43;13.53;;;1.30;99.90;;;;;;5093287;28;20198;-78
2022/03/05 08:37:11;;;;;;;38.57;14.47;;;1.30;99.90;;;;;;5087243;28;20301;-79
2022/03/05 08:39:38;;;;;;;36.77;13.73;;;1.40;99.90;;;;;;5089081;28;20239;-77
2022/03/05 08:42:07;;;;;;;42.67;14.83;;;1.30;99.90;;;;;;5074848;28;20524;-78
2022/03/05 08:44:34;;;;;;;33.93;13.90;;;1.30;99.90;;;;;;5069835;28;20242;-79
2022/03/05 08:47:01;;;;;;;34.83;14.43;;;1.40;99.90;;;;;;5092796;28;20221;-77
2022/03/05 08:49:29;;;;;;;32.83;13.70;;;1.40;99.90;;;;;;5088860;28;20667;-79
2022/03/05 08:51:56;;;;;;;34.67;14.87;;;1.40;99.90;;;;;;5095673;28;20810;-77
2022/03/05 08:54:25;;;;;;;36.37;13.93;;;1.40;99.90;;;;;;5094756;28;20232;-78
2022/03/05 08:56:52;;;;;;;45.33;16.83;;;1.40;99.90;;;;;;5094401;28;20238;-77
2022/03/05 08:59:19;;;;;;;35.13;14.97;;;1.50;99.90;;;;;;5091391;28;20243;-79
2022/03/05 09:01:46;;;;;;;40.87;14.60;;;1.50;99.90;;;;;;5074712;28;20310;-78
2022/03/05 09:04:13;;;;;;;34.67;15.93;;;1.50;99.90;;;;;;5090688;28;20198;-78
2022/03/05 09:06:40;;;;;;;40.10;16.60;;;1.40;99.90;;;;;;5091063;28;20211;-79
2022/03/05 09:09:09;;;;;;;39.40;15.43;;;1.40;99.90;;;;;;5090878;28;20198;-80
2022/03/05 09:11:37;;;;;;;38.90;15.03;;;1.50;99.90;;;;;;5085613;28;20221;-78
2022/03/05 09:14:08;;;;;;;38.37;13.33;;;1.50;99.90;;;;;;5088636;28;20200;-78
2022/03/05 09:16:39;;;;;;;35.23;14.10;;;1.60;99.90;;;;;;5096037;28;20337;-78
2022/03/05 09:19:06;;;;;;;40.10;15.07;;;1.70;99.90;;;;;;5073408;28;20679;-76
2022/03/05 09:21:35;;;;;;;35.87;14.30;;;1.70;99.90;;;;;;5096448;28;20287;-76
2022/03/05 09:24:03;;;;;;;39.93;15.03;;;1.70;99.90;;;;;;5087539;28;20223;-78
2022/03/05 09:26:31;;;;;;;41.70;14.33;;;1.80;99.90;;;;;;5090384;28;20286;-79
2022/03/05 09:28:58;;;;;;;37.20;14.50;;;1.90;99.90;;;;;;5071564;28;20211;-77
2022/03/05 09:31:27;;;;;;;42.40;15.43;;;2.00;99.90;;;;;;5094039;28;20232;-76
2022/03/05 09:33:54;;;;;;;39.50;14.70;;;2.10;99.90;;;;;;5096456;28;20196;-77
2022/03/05 09:36:21;;;;;;;38.70;14.17;;;2.30;99.90;;;;;;5105643;28;20306;-79
2022/03/05 09:38:48;;;;;;;32.27;13.30;;;2.60;99.90;;;;;;5091933;28;20200;-77
2022/03/05 09:41:15;;;;;;;37.97;13.70;;;2.90;99.90;;;;;;5091875;28;20216;-79
2022/03/05 09:43:43;;;;;;;36.33;13.60;;;3.30;99.90;;;;;;5087941;28;20222;-77
2022/03/05 09:46:11;;;;;;;35.50;13.93;;;3.60;99.90;;;;;;5092012;28;20266;-79
2022/03/05 09:48:40;;;;;;;33.00;14.47;;;3.90;99.90;;;;;;5072657;28;20240;-82
2022/03/05 09:51:07;;;;;;;38.30;14.20;;;4.10;99.90;;;;;;5089547;28;20226;-81
2022/03/05 09:53:34;;;;;;;36.13;15.13;;;4.30;99.90;;;;;;5081122;28;20205;-81
2022/03/05 09:56:01;;;;;;;34.63;14.37;;;4.30;99.90;;;;;;5094349;28;20525;-81
2022/03/05 09:58:48;;;;;;;36.60;14.87;;;4.40;99.90;;;;;;5068487;28;20195;-84
2022/03/05 10:01:16;;;;;;;36.17;14.67;;;4.30;99.90;;;;;;5083230;28;20269;-83
2022/03/05 10:03:48;;;;;;;32.87;13.10;;;4.20;99.90;;;;;;5075553;28;20210;-80
2022/03/05 10:06:23;;;;;;;39.63;15.83;;;4.20;99.90;;;;;;5088327;28;20205;-82
2022/03/05 10:08:51;;;;;;;38.57;15.40;;;4.20;99.90;;;;;;5100575;28;20209;-84
2022/03/05 10:11:19;;;;;;;37.43;15.63;;;4.10;99.90;;;;;;5074295;28;20268;-82
2022/03/05 10:13:46;;;;;;;35.37;14.13;;;4.20;99.90;;;;;;5077140;28;20191;-81
2022/03/05 10:16:33;;;;;;;43.00;15.53;;;4.10;99.90;;;;;;5099077;28;20224;-81
2022/03/05 10:19:15;;;;;;;43.37;16.60;;;4.10;99.90;;;;;;5069689;28;20267;-82
2022/03/05 10:22:05;;;;;;;39.73;16.10;;;4.20;99.90;;;;;;5083955;28;20201;-84
2022/03/05 10:24:37;;;;;;;48.90;16.63;;;4.20;99.90;;;;;;5088577;28;20200;-82
2022/03/05 10:27:09;;;;;;;41.30;15.10;;;4.20;99.90;;;;;;5081930;28;20290;-83
2022/03/05 10:29:39;;;;;;;40.17;15.37;;;4.20;99.90;;;;;;5092425;28;20281;-83
2022/03/05 10:32:12;;;;;;;38.53;14.90;;;4.10;99.90;;;;;;5090166;28;20276;-83
2022/03/05 10:34:41;;;;;;;38.43;16.17;;;4.20;99.90;;;;;;5090533;28;20259;-81
2022/03/05 10:37:09;;;;;;;44.80;15.83;;;4.20;99.90;;;;;;5091438;28;20199;-85
2022/03/05 10:39:37;;;;;;;37.07;15.43;;;4.20;99.90;;;;;;5093928;28;20192;-83
2022/03/05 10:42:26;;;;;;;40.33;16.10;;;4.20;99.90;;;;;;5095566;28;20209;-81
2022/03/05 10:45:08;;;;;;;40.73;16.27;;;4.20;99.90;;;;;;5098639;28;20213;-82
2022/03/05 10:47:46;;;;;;;44.50;17.90;;;4.30;99.90;;;;;;5091129;28;20204;-81
2022/03/05 10:50:24;;;;;;;43.83;16.27;;;4.40;99.90;;;;;;5091769;28;20731;-81
2022/03/05 10:52:56;;;;;;;36.60;15.77;;;4.40;99.90;;;;;;5085227;28;20223;-83
2022/03/05 10:55:25;;;;;;;38.97;15.47;;;4.40;99.90;;;;;;5073780;28;20225;-83
2022/03/05 10:58:03;;;;;;;41.07;16.77;;;4.50;99.90;;;;;;5094954;28;20233;-85
2022/03/05 11:00:30;;;;;;;48.70;18.23;;;4.60;99.90;;;;;;5074405;28;20221;-85
2022/03/05 11:03:00;;;;;;;37.50;16.00;;;4.70;99.90;;;;;;5094991;28;20210;-83
2022/03/05 11:05:28;;;;;;;45.93;15.83;;;4.80;99.90;;;;;;5072051;28;20202;-83
2022/03/05 11:07:56;;;;;;;45.73;17.53;;;4.90;99.90;;;;;;5084896;28;20664;-82
2022/03/05 11:10:29;;;;;;;38.90;15.87;;;5.00;99.90;;;;;;5073032;28;20206;-83
2022/03/05 11:13:02;;;;;;;39.73;16.63;;;5.10;99.90;;;;;;5081080;28;20237;-82
2022/03/05 11:15:31;;;;;;;36.43;15.43;;;5.20;99.90;;;;;;5077799;28;20219;-83
2022/03/05 11:17:58;;;;;;;39.63;16.80;;;5.30;99.90;;;;;;5093178;28;20199;-83
2022/03/05 11:20:26;;;;;;;44.83;16.77;;;5.50;99.90;;;;;;5089199;28;20307;-84
2022/03/05 11:22:55;;;;;;;40.63;16.03;;;5.70;99.90;;;;;;5087730;28;20206;-83
2022/03/05 11:25:27;;;;;;;40.33;16.20;;;5.80;99.90;;;;;;5090914;28;20206;-82
2022/03/05 11:27:59;;;;;;;42.57;16.53;;;5.90;99.90;;;;;;5088449;28;20238;-83
2022/03/05 11:30:38;;;;;;;38.87;16.13;;;6.10;99.90;;;;;;5095576;28;20246;-84
2022/03/05 11:33:09;;;;;;;38.67;16.87;;;6.20;99.90;;;;;;5073787;28;20602;-83
2022/03/05 11:35:42;;;;;;;36.63;16.07;;;6.40;99.90;;;;;;5091953;28;20239;-84
2022/03/05 11:38:36;;;;;;;37.50;16.17;;;6.50;99.90;;;;;;5068232;28;20236;-82
2022/03/05 11:41:27;;;;;;;38.87;15.50;;;6.70;99.90;;;;;;5091491;28;20762;-85
2022/03/05 11:43:54;;;;;;;41.67;16.27;;;6.70;99.90;;;;;;5092213;28;20215;-84
2022/03/05 11:46:30;;;;;;;41.50;16.80;;;6.90;99.90;;;;;;5090027;28;20229;-85
2022/03/05 11:49:09;;;;;;;46.00;16.90;;;7.00;99.90;;;;;;5092496;28;20210;-84
2022/03/05 11:52:00;;;;;;;41.43;17.23;;;7.00;99.90;;;;;;5076944;28;20307;-82
2022/03/05 11:54:27;;;;;;;36.87;16.43;;;7.20;99.90;;;;;;5080051;28;20291;-84
2022/03/05 11:57:13;;;;;;;42.63;17.87;;;7.20;99.90;;;;;;5085426;28;20205;-86
2022/03/05 11:59:43;;;;;;;44.00;18.90;;;7.30;99.90;;;;;;5093258;28;20207;-83
2022/03/05 12:02:10;;;;;;;43.90;17.70;;;7.30;99.90;;;;;;5090247;28;20214;-85
2022/03/05 12:04:46;;;;;;;43.07;17.30;;;7.40;99.90;;;;;;5088413;28;20204;-84
2022/03/05 12:07:14;;;;;;;43.33;17.43;;;7.50;99.90;;;;;;5090772;28;20206;-84
2022/03/05 12:09:44;;;;;;;43.50;17.73;;;7.60;99.90;;;;;;5089584;28;20288;-85
2022/03/05 12:12:13;;;;;;;37.77;16.73;;;7.70;99.90;;;;;;5073121;28;20293;-84
2022/03/05 12:14:55;;;;;;;44.83;17.70;;;7.80;99.90;;;;;;5089666;28;20196;-84
2022/03/05 12:17:25;;;;;;;40.80;17.83;;;7.90;99.90;;;;;;5089085;28;20470;-85
2022/03/05 12:19:54;;;;;;;42.37;17.83;;;8.00;99.90;;;;;;5067965;28;20284;-85
2022/03/05 12:22:21;;;;;;;41.33;18.00;;;8.10;99.90;;;;;;5083343;28;20201;-85
2022/03/05 12:24:48;;;;;;;38.37;17.30;;;8.10;99.90;;;;;;5073603;28;20204;-85
2022/03/05 12:27:17;;;;;;;41.13;18.53;;;8.10;99.90;;;;;;5093210;28;20228;-90
2022/03/05 12:29:52;;;;;;;48.60;19.63;;;8.20;99.90;;;;;;5084208;28;20201;-90
2022/03/05 12:32:27;;;;;;;40.03;17.13;;;8.30;99.90;;;;;;5080201;28;20243;-89
2022/03/05 12:35:08;;;;;;;37.37;17.27;;;8.40;99.90;;;;;;5076376;28;20641;-89
2022/03/05 12:37:35;;;;;;;44.77;19.37;;;8.50;99.90;;;;;;5099547;28;20257;-89
2022/03/05 12:40:05;;;;;;;40.30;18.03;;;8.60;99.90;;;;;;5084006;28;20287;-87
2022/03/05 12:42:42;;;;;;;44.47;18.07;;;8.70;99.90;;;;;;5081619;28;20224;-89